VVDN/DAD METAR and TAF weather

Enter ICAO airport designator
Station Type Date Time Source
VVDN METAR 2022/01/29 00:30 UTC NOAA

VVDN 290030Z 22001KT 6000 FEW015 SCT060 23/21 Q1013 NOSIG


Station Type Date Time Source
VVDN Decoded METAR 2022/01/29 00:30 UTC NOAA

Da Nang, Vietnam (VVDN) 16-02N 108-11E 7M
Jan 28, 2022 - 07:30 PM EST / 2022.01.29 0030 UTC
Wind: from the SW (220 degrees) at 1 MPH (1 KT):0
Visibility: 3 mile(s):0
Sky conditions: partly cloudy
Temperature: 73 F (23 C)
Dew Point: 69 F (21 C)
Relative Humidity: 88%
Pressure (altimeter): 29.91 in. Hg (1013 hPa)
ob: VVDN 290030Z 22001KT 6000 FEW015 SCT060 23/21 Q1013 NOSIG
cycle: 0

Station Type Date Time Source
VVDN TAF 2022/01/28 18:36 UTC NOAA

TAF VVDN 281700Z 2818/2918 22003KT 9999 FEW015
BECMG 2820/2822 4500 BR
BECMG 2900/2901 7000 NSW
BECMG 2903/2904 09010KT
BECMG 2913/2914 22003KT

Example: see airport list